createdAt,value
2024-03-10T00:01:02.651Z,12.30
2024-03-10T00:06:06.989Z,14.10
2024-03-10T00:11:10.970Z,12.40
2024-03-10T00:16:14.437Z,13.90
2024-03-10T00:21:17.664Z,13.50
2024-03-10T00:26:21.176Z,12.50
2024-03-10T00:31:25.344Z,13.30
2024-03-10T00:36:29.692Z,13.60
2024-03-10T00:41:32.945Z,12.60
2024-03-10T00:46:36.069Z,12.60
2024-03-10T00:51:40.570Z,13.60
2024-03-10T00:56:43.783Z,13.40
2024-03-10T01:01:47.150Z,13.50
2024-03-10T01:06:50.539Z,12.90
2024-03-10T01:11:54.660Z,14.80
2024-03-10T01:16:58.254Z,13.70
2024-03-10T01:22:02.060Z,13.70
2024-03-10T01:27:05.297Z,13.90
2024-03-10T01:32:09.235Z,12.90
2024-03-10T01:37:12.723Z,13.50
2024-03-10T01:42:16.025Z,13.50
2024-03-10T01:47:19.577Z,12.30
2024-03-10T01:52:24.292Z,12.50
2024-03-10T01:57:29.280Z,13.00
2024-03-10T02:02:32.772Z,11.30
2024-03-10T02:07:35.990Z,11.80
2024-03-10T02:12:39.136Z,11.80
2024-03-10T02:17:42.735Z,12.20
2024-03-10T02:22:46.696Z,11.40
2024-03-10T02:27:53.346Z,12.00
2024-03-10T02:33:15.505Z,12.20
2024-03-10T02:38:37.166Z,11.40
2024-03-10T02:44:00.570Z,10.70
2024-03-10T02:49:04.563Z,11.90
2024-03-10T02:54:08.403Z,11.80
2024-03-10T02:59:12.068Z,10.70
2024-03-10T03:04:16.086Z,12.10
2024-03-10T03:09:21.047Z,12.30
2024-03-10T03:14:24.308Z,11.80
2024-03-10T03:19:28.009Z,10.70
2024-03-10T03:24:31.278Z,10.60
2024-03-10T03:29:34.813Z,11.50
2024-03-10T03:34:38.821Z,10.60
2024-03-10T03:39:42.181Z,10.70
2024-03-10T03:44:45.337Z,10.70
2024-03-10T03:49:48.696Z,10.80
2024-03-10T03:54:52.446Z,12.00
2024-03-10T03:59:55.851Z,10.50
2024-03-10T04:04:59.763Z,10.70
2024-03-10T04:10:03.111Z,11.10
2024-03-10T04:15:07.448Z,10.30
2024-03-10T04:20:14.005Z,9.00
2024-03-10T04:25:17.638Z,10.30
2024-03-10T04:30:22.884Z,10.50
2024-03-10T04:35:26.264Z,11.00
2024-03-10T04:40:29.313Z,10.90
2024-03-10T04:45:33.470Z,9.40
2024-03-10T04:50:36.610Z,9.30
2024-03-10T04:55:40.165Z,10.20
2024-03-10T05:00:43.498Z,9.50
2024-03-10T05:05:46.610Z,9.10
2024-03-10T05:10:50.880Z,10.50
2024-03-10T05:15:54.126Z,10.40
2024-03-10T05:20:57.372Z,9.30
2024-03-10T05:26:00.661Z,9.00
2024-03-10T05:31:04.094Z,9.40
2024-03-10T05:36:08.486Z,7.80
2024-03-10T05:41:12.982Z,8.60
2024-03-10T05:46:16.869Z,7.70
2024-03-10T05:51:20.176Z,9.10
2024-03-10T05:56:23.768Z,8.60
2024-03-10T06:01:26.991Z,8.10
2024-03-10T06:06:30.270Z,8.40
2024-03-10T06:11:33.580Z,8.10
2024-03-10T06:16:36.717Z,8.50
2024-03-10T06:22:03.660Z,8.70
2024-03-10T06:27:09.765Z,7.40
2024-03-10T06:32:15.596Z,7.80
2024-03-10T06:37:20.296Z,7.10
2024-03-10T06:42:23.655Z,7.60
2024-03-10T06:47:26.963Z,6.30
2024-03-10T06:52:30.091Z,6.90
2024-03-10T06:57:34.149Z,6.80
2024-03-10T07:02:41.822Z,5.90
2024-03-10T07:07:46.786Z,6.40
2024-03-10T07:12:49.929Z,6.30
2024-03-10T07:17:56.832Z,7.40
2024-03-10T07:23:00.169Z,6.70
2024-03-10T07:28:03.469Z,6.40
2024-03-10T07:33:06.981Z,5.40
2024-03-10T07:38:10.592Z,6.20
2024-03-10T07:43:14.291Z,6.50
2024-03-10T07:48:18.926Z,6.90
2024-03-10T07:53:31.793Z,6.30
2024-03-10T07:58:35.104Z,5.90
2024-03-10T08:03:38.273Z,5.30
2024-03-10T08:08:41.523Z,5.40
2024-03-10T08:13:45.852Z,4.70
2024-03-10T08:18:51.156Z,5.10
2024-03-10T08:23:55.786Z,5.40
2024-03-10T08:29:03.594Z,4.20
2024-03-10T08:34:06.968Z,5.10
2024-03-10T08:39:13.301Z,4.50
2024-03-10T08:44:16.862Z,3.80
2024-03-10T08:49:22.653Z,4.80
2024-03-10T08:54:26.510Z,4.00
2024-03-10T08:59:30.203Z,3.90
2024-03-10T09:04:37.534Z,4.50
2024-03-10T09:09:40.631Z,4.60
2024-03-10T09:14:44.247Z,4.70
2024-03-10T09:19:49.428Z,4.60
2024-03-10T09:24:53.809Z,4.20
2024-03-10T09:29:58.810Z,4.70
2024-03-10T09:35:04.010Z,4.00
2024-03-10T09:40:14.571Z,4.30
2024-03-10T09:45:22.215Z,6.20
2024-03-10T09:50:26.197Z,5.60
2024-03-10T09:55:29.524Z,4.10
2024-03-10T10:00:32.954Z,5.10
2024-03-10T10:05:43.669Z,4.50
2024-03-10T10:10:50.542Z,5.20
2024-03-10T10:15:58.290Z,5.00
2024-03-10T10:21:08.232Z,4.70
2024-03-10T10:26:11.743Z,4.20
2024-03-10T10:31:16.355Z,4.20
2024-03-10T10:36:22.419Z,4.90
2024-03-10T10:41:25.766Z,4.60
2024-03-10T10:46:30.331Z,4.10
2024-03-10T10:51:34.872Z,3.50
2024-03-10T10:56:38.229Z,3.40
2024-03-10T11:01:47.092Z,3.80
2024-03-10T11:06:56.104Z,3.70
2024-03-10T11:11:59.769Z,3.20
2024-03-10T11:17:13.532Z,3.90
2024-03-10T11:22:21.850Z,4.20
2024-03-10T11:27:27.653Z,4.00
2024-03-10T11:37:39.693Z,4.40
2024-03-10T11:42:44.078Z,4.00
2024-03-10T11:47:47.343Z,3.90
2024-03-10T11:52:50.681Z,3.90
2024-03-10T11:57:57.733Z,3.90
2024-03-10T12:03:02.058Z,3.60
2024-03-10T12:08:17.873Z,3.40
2024-03-10T12:13:24.631Z,3.20
2024-03-10T12:18:29.814Z,3.20
2024-03-10T12:23:40.965Z,3.50
2024-03-10T12:28:47.477Z,3.10
2024-03-10T12:33:50.772Z,3.60
2024-03-10T12:38:53.965Z,2.90
2024-03-10T12:43:58.247Z,2.60
2024-03-10T12:49:02.380Z,3.30
2024-03-10T12:54:07.607Z,3.30
2024-03-10T12:59:11.584Z,3.10
2024-03-10T13:04:16.071Z,3.20
2024-03-10T13:09:19.509Z,3.60
2024-03-10T13:14:22.724Z,3.30
2024-03-10T13:19:26.712Z,3.60
2024-03-10T13:24:32.069Z,3.90
2024-03-10T13:29:36.658Z,3.70
2024-03-10T13:34:42.639Z,3.80
2024-03-10T13:39:48.241Z,3.90
2024-03-10T13:44:53.728Z,3.30
2024-03-10T13:49:57.287Z,3.10
2024-03-10T13:55:00.736Z,3.20
2024-03-10T14:00:15.030Z,3.20
2024-03-10T14:05:20.157Z,3.50
2024-03-10T14:10:27.697Z,3.10
2024-03-10T14:15:39.397Z,2.40
2024-03-10T14:20:46.361Z,3.10
2024-03-10T14:25:49.486Z,3.20
2024-03-10T14:30:55.317Z,3.30
2024-03-10T14:35:58.811Z,2.90
2024-03-10T14:41:08.032Z,3.10
2024-03-10T14:46:12.085Z,3.20
2024-03-10T14:51:15.460Z,3.70
2024-03-10T14:56:19.565Z,3.20
2024-03-10T15:01:28.657Z,3.70
2024-03-10T15:06:34.658Z,3.50
2024-03-10T15:11:38.435Z,3.10
2024-03-10T15:16:45.853Z,3.00
2024-03-10T15:21:49.156Z,3.40
2024-03-10T15:26:54.015Z,3.30
2024-03-10T15:31:58.899Z,3.10
2024-03-10T15:37:05.826Z,3.10
2024-03-10T15:42:09.298Z,2.90
2024-03-10T15:47:22.031Z,2.70
2024-03-10T15:52:25.639Z,2.90
2024-03-10T15:57:29.112Z,2.50
2024-03-10T16:02:34.177Z,2.70
2024-03-10T16:07:37.897Z,2.60
2024-03-10T16:12:42.733Z,2.20
2024-03-10T16:17:46.320Z,2.50
2024-03-10T16:22:50.482Z,2.50
2024-03-10T16:27:54.300Z,2.10
2024-03-10T16:32:57.884Z,2.40
2024-03-10T16:38:01.517Z,2.40
2024-03-10T16:43:05.344Z,2.80
2024-03-10T16:48:09.484Z,4.30
2024-03-10T16:53:15.801Z,4.20
2024-03-10T16:58:21.962Z,4.80
2024-03-10T17:03:25.610Z,5.90
2024-03-10T17:08:29.511Z,5.00
2024-03-10T17:13:36.485Z,5.00
2024-03-10T17:18:45.768Z,5.10
2024-03-10T17:23:49.605Z,5.10
2024-03-10T17:28:57.759Z,5.20
2024-03-10T17:34:02.050Z,5.60
2024-03-10T17:39:07.282Z,4.70
2024-03-10T17:44:10.775Z,5.40
2024-03-10T17:49:15.062Z,6.00
2024-03-10T17:54:18.185Z,4.80
2024-03-10T17:59:22.211Z,5.80
2024-03-10T18:04:25.622Z,5.50
2024-03-10T18:09:29.163Z,5.40
2024-03-10T18:14:34.958Z,5.50
2024-03-10T18:19:38.878Z,5.10
2024-03-10T18:24:44.711Z,5.10
2024-03-10T18:34:52.306Z,4.60
2024-03-10T18:39:56.285Z,5.30
2024-03-10T18:44:59.249Z,4.70
2024-03-10T18:50:02.362Z,5.90
2024-03-10T18:55:06.414Z,5.60
2024-03-10T19:00:12.938Z,6.10
2024-03-10T19:05:21.753Z,5.10
2024-03-10T19:10:25.089Z,5.70
2024-03-10T19:15:28.294Z,7.00
2024-03-10T19:20:33.067Z,6.30
2024-03-10T19:25:36.695Z,6.10
2024-03-10T19:30:40.116Z,6.60
2024-03-10T19:35:44.935Z,5.80
2024-03-10T19:40:48.481Z,5.90
2024-03-10T19:45:51.935Z,6.20
2024-03-10T19:50:55.164Z,6.30
2024-03-10T19:55:58.591Z,5.30
2024-03-10T20:01:02.856Z,6.30
2024-03-10T20:06:07.178Z,6.00
2024-03-10T20:11:10.570Z,6.80
2024-03-10T20:16:13.945Z,6.30
2024-03-10T20:21:17.076Z,7.30
2024-03-10T20:26:20.194Z,6.80
2024-03-10T20:31:25.595Z,6.90
2024-03-10T20:36:30.885Z,5.90
2024-03-10T20:41:34.109Z,7.40
2024-03-10T20:46:39.469Z,6.70
2024-03-10T20:51:42.998Z,7.40
2024-03-10T20:56:46.124Z,7.20
2024-03-10T21:01:49.158Z,7.20
2024-03-10T21:06:52.834Z,6.90
2024-03-10T21:11:57.420Z,6.40
2024-03-10T21:17:01.010Z,6.90
2024-03-10T21:22:07.349Z,6.10
2024-03-10T21:32:13.099Z,6.40
2024-03-10T21:37:16.395Z,6.00
2024-03-10T21:42:20.554Z,6.70
2024-03-10T21:47:24.685Z,7.50
2024-03-10T21:52:28.397Z,6.40
2024-03-10T21:57:31.448Z,6.80
2024-03-10T22:02:34.808Z,7.30
2024-03-10T22:07:38.041Z,7.20
2024-03-10T22:12:43.404Z,6.40
2024-03-10T22:17:48.161Z,7.30
2024-03-10T22:22:51.898Z,7.50
2024-03-10T22:27:57.001Z,6.60
2024-03-10T22:33:01.058Z,6.90
2024-03-10T22:38:04.334Z,7.50
2024-03-10T22:43:09.637Z,7.60
2024-03-10T22:48:12.686Z,6.80
2024-03-10T22:53:16.673Z,6.20
2024-03-10T22:58:19.898Z,6.70
2024-03-10T23:03:23.453Z,7.00
2024-03-10T23:08:26.628Z,7.80
2024-03-10T23:13:29.778Z,7.80
2024-03-10T23:18:33.806Z,7.10
2024-03-10T23:23:39.186Z,6.80
2024-03-10T23:28:43.712Z,6.10
2024-03-10T23:33:46.971Z,6.50
2024-03-10T23:38:50.363Z,6.60
2024-03-10T23:43:53.510Z,6.20
2024-03-10T23:48:57.158Z,7.10
2024-03-10T23:54:00.353Z,6.60
2024-03-10T23:59:03.549Z,6.10
